createdAt,value
2023-01-29T00:05:27.780Z,1.10
2023-01-29T00:10:29.541Z,1.73
2023-01-29T00:15:31.020Z,1.88
2023-01-29T00:20:32.500Z,1.10
2023-01-29T00:25:33.967Z,1.85
2023-01-29T00:30:36.281Z,1.38
2023-01-29T00:35:39.572Z,1.38
2023-01-29T00:41:00.134Z,1.65
2023-01-29T00:46:01.766Z,1.52
2023-01-29T00:51:03.293Z,1.00
2023-01-29T00:56:04.912Z,1.60
2023-01-29T01:01:06.419Z,1.10
2023-01-29T01:06:09.488Z,0.98
2023-01-29T01:11:10.955Z,1.25
2023-01-29T01:16:13.945Z,1.02
2023-01-29T01:21:15.427Z,0.60
2023-01-29T01:26:16.901Z,0.70
2023-01-29T01:31:18.892Z,0.90
2023-01-29T01:36:20.472Z,0.60
2023-01-29T01:41:22.828Z,0.65
2023-01-29T01:46:25.277Z,0.82
2023-01-29T01:51:26.739Z,1.08
2023-01-29T01:56:40.858Z,0.10
2023-01-29T02:01:43.228Z,0.50
2023-01-29T02:07:02.878Z,0.52
2023-01-29T02:12:09.115Z,0.70
2023-01-29T02:17:12.555Z,0.98
2023-01-29T02:22:33.526Z,0.60
2023-01-29T02:28:12.547Z,0.70
2023-01-29T02:33:35.546Z,0.68
2023-01-29T02:38:45.504Z,0.98
2023-01-29T02:43:56.025Z,0.73
2023-01-29T02:49:04.536Z,0.60
2023-01-29T02:54:21.818Z,1.15
2023-01-29T02:59:25.838Z,1.33
2023-01-29T03:04:31.939Z,0.80
2023-01-29T03:09:34.752Z,1.00
2023-01-29T03:14:56.383Z,0.80
2023-01-29T03:19:57.835Z,1.05
2023-01-29T03:25:17.585Z,1.27
2023-01-29T03:30:37.801Z,0.73
2023-01-29T03:35:43.202Z,1.67
2023-01-29T03:41:08.987Z,1.15
2023-01-29T03:46:32.324Z,0.90
2023-01-29T03:51:40.979Z,0.82
2023-01-29T03:57:05.448Z,0.80
2023-01-29T04:02:15.507Z,0.70
2023-01-29T04:07:23.700Z,1.10
2023-01-29T04:12:28.241Z,1.00
2023-01-29T04:17:34.108Z,1.15
2023-01-29T04:22:37.138Z,1.35
2023-01-29T04:27:57.945Z,0.60
2023-01-29T04:33:33.441Z,0.85
2023-01-29T04:38:52.214Z,0.57
2023-01-29T04:44:01.773Z,0.75
2023-01-29T04:49:13.475Z,0.98
2023-01-29T04:54:23.678Z,0.73
2023-01-29T04:59:37.153Z,1.92
2023-01-29T05:04:38.816Z,0.93
2023-01-29T05:09:40.286Z,0.60
2023-01-29T05:14:42.199Z,0.45
2023-01-29T05:19:43.689Z,1.13
2023-01-29T05:24:46.505Z,0.60
2023-01-29T05:29:48.041Z,0.70
2023-01-29T05:34:49.554Z,1.00
2023-01-29T05:39:51.024Z,0.82
2023-01-29T05:44:52.584Z,0.70
2023-01-29T05:49:54.101Z,1.08
2023-01-29T05:54:55.960Z,0.93
2023-01-29T05:59:57.448Z,1.77
2023-01-29T06:04:58.910Z,1.35
2023-01-29T06:10:00.371Z,0.98
2023-01-29T06:15:01.836Z,1.45
2023-01-29T06:20:04.022Z,1.65
2023-01-29T06:25:06.050Z,1.20
2023-01-29T06:30:09.645Z,2.45
2023-01-29T06:35:11.151Z,1.63
2023-01-29T06:40:12.844Z,1.40
2023-01-29T06:45:14.372Z,1.73
2023-01-29T06:50:16.104Z,2.65
2023-01-29T06:55:17.784Z,2.80
2023-01-29T07:00:20.396Z,2.80
2023-01-29T07:05:22.085Z,2.03
2023-01-29T07:10:23.622Z,2.25
2023-01-29T07:15:25.213Z,1.77
2023-01-29T07:20:27.554Z,2.30
2023-01-29T07:25:30.324Z,2.58
2023-01-29T07:30:31.870Z,2.17
2023-01-29T07:35:36.180Z,1.13
2023-01-29T07:40:37.663Z,1.27
2023-01-29T07:45:39.467Z,1.10
2023-01-29T07:50:40.984Z,1.08
2023-01-29T07:55:44.214Z,1.10
2023-01-29T08:05:47.174Z,1.08
2023-01-29T08:10:48.628Z,1.05
2023-01-29T08:15:50.102Z,1.38
2023-01-29T08:20:52.840Z,2.85
2023-01-29T08:25:54.444Z,2.63
2023-01-29T08:30:56.040Z,2.53
2023-01-29T08:35:57.568Z,2.38
2023-01-29T08:40:59.031Z,1.70
2023-01-29T08:46:00.533Z,1.48
2023-01-29T08:51:02.490Z,2.15
2023-01-29T08:56:04.092Z,1.48
2023-01-29T09:01:06.980Z,1.55
2023-01-29T09:06:09.356Z,1.40
2023-01-29T09:11:11.162Z,1.60
2023-01-29T09:16:12.683Z,1.35
2023-01-29T09:21:14.137Z,1.35
2023-01-29T09:26:15.611Z,1.20
2023-01-29T09:31:17.231Z,1.70
2023-01-29T09:36:18.959Z,1.30
2023-01-29T09:41:39.060Z,1.08
2023-01-29T09:46:44.284Z,1.10
2023-01-29T09:51:51.489Z,1.38
2023-01-29T09:56:55.064Z,2.15
2023-01-29T10:02:18.476Z,5.60
2023-01-29T10:07:31.913Z,5.57
2023-01-29T10:13:05.574Z,5.82
2023-01-29T10:18:31.560Z,8.13
2023-01-29T10:23:37.694Z,9.02
2023-01-29T10:28:46.394Z,7.80
2023-01-29T10:34:02.182Z,7.20
2023-01-29T10:39:04.331Z,6.53
2023-01-29T10:44:20.990Z,5.40
2023-01-29T10:49:41.938Z,5.30
2023-01-29T10:55:22.876Z,7.22
2023-01-29T11:00:28.559Z,6.38
2023-01-29T11:05:32.914Z,7.13
2023-01-29T11:10:37.804Z,8.88
2023-01-29T11:15:39.291Z,9.02
2023-01-29T11:20:41.972Z,12.75
2023-01-29T11:25:45.789Z,11.40
2023-01-29T11:30:47.478Z,9.25
2023-01-29T11:35:48.953Z,9.00
2023-01-29T11:40:50.446Z,8.75
2023-01-29T11:45:54.189Z,8.65
2023-01-29T11:50:57.420Z,8.43
2023-01-29T11:55:59.111Z,8.20
2023-01-29T12:01:01.124Z,7.85
2023-01-29T12:06:07.480Z,6.18
2023-01-29T12:11:11.021Z,6.30
2023-01-29T12:16:17.199Z,7.20
2023-01-29T12:21:23.069Z,7.82
2023-01-29T12:26:44.657Z,7.30
2023-01-29T12:31:55.385Z,7.90
2023-01-29T12:37:09.739Z,8.98
2023-01-29T12:42:16.453Z,7.60
2023-01-29T12:47:33.416Z,7.95
2023-01-29T12:53:02.034Z,6.93
2023-01-29T12:58:04.772Z,6.65
2023-01-29T13:03:27.984Z,6.97
2023-01-29T13:08:37.551Z,6.45
2023-01-29T13:18:42.325Z,6.22
2023-01-29T13:23:54.529Z,5.93
2023-01-29T13:28:55.995Z,5.95
2023-01-29T13:34:08.217Z,5.50
2023-01-29T13:39:17.373Z,4.70
2023-01-29T13:44:26.957Z,5.25
2023-01-29T13:54:37.115Z,4.50
2023-01-29T13:59:53.050Z,3.88
2023-01-29T14:10:15.586Z,4.65
2023-01-29T14:15:22.402Z,3.55
2023-01-29T14:20:27.724Z,4.00
2023-01-29T14:25:34.765Z,5.43
2023-01-29T14:30:36.374Z,4.40
2023-01-29T14:35:37.876Z,4.13
2023-01-29T14:40:41.169Z,4.38
2023-01-29T14:45:43.925Z,3.92
2023-01-29T14:50:49.532Z,5.93
2023-01-29T14:56:03.181Z,5.20
2023-01-29T15:01:07.106Z,4.13
2023-01-29T15:06:09.102Z,4.80
2023-01-29T15:11:35.857Z,5.32
2023-01-29T15:16:42.441Z,6.13
2023-01-29T15:22:03.331Z,4.85
2023-01-29T15:27:06.489Z,4.57
2023-01-29T15:37:27.672Z,3.90
2023-01-29T15:42:29.687Z,3.67
2023-01-29T15:47:31.438Z,3.50
2023-01-29T15:52:35.092Z,2.00
2023-01-29T15:57:37.768Z,2.50
2023-01-29T16:02:40.460Z,2.00
2023-01-29T16:07:42.231Z,2.50
2023-01-29T16:12:43.703Z,2.80
2023-01-29T16:17:45.168Z,2.60
2023-01-29T16:22:46.642Z,2.47
2023-01-29T16:27:48.124Z,2.70
2023-01-29T16:32:49.583Z,2.70
2023-01-29T16:37:51.067Z,2.50
2023-01-29T16:43:28.393Z,3.10
2023-01-29T16:48:33.966Z,2.97
2023-01-29T16:53:35.440Z,2.15
2023-01-29T16:58:37.082Z,2.67
2023-01-29T17:03:38.602Z,2.95
2023-01-29T17:08:42.835Z,5.38
2023-01-29T17:13:44.391Z,3.55
2023-01-29T17:18:45.883Z,3.35
2023-01-29T17:23:47.357Z,3.72
2023-01-29T17:28:51.712Z,3.58
2023-01-29T17:33:53.191Z,3.40
2023-01-29T17:38:54.682Z,4.22
2023-01-29T17:43:56.145Z,3.80
2023-01-29T17:48:57.608Z,3.42
2023-01-29T17:53:59.072Z,4.32
2023-01-29T17:59:00.912Z,4.63
2023-01-29T18:04:02.519Z,4.85
2023-01-29T18:09:04.062Z,4.28
2023-01-29T18:14:10.242Z,4.78
2023-01-29T18:19:16.625Z,4.60
2023-01-29T18:24:20.286Z,4.70
2023-01-29T18:29:21.769Z,4.10
2023-01-29T18:34:23.275Z,4.50
2023-01-29T18:39:25.188Z,3.60
2023-01-29T18:44:29.620Z,4.35
2023-01-29T18:49:31.593Z,4.20
2023-01-29T18:59:35.594Z,5.20
2023-01-29T19:04:37.325Z,5.70
2023-01-29T19:09:40.367Z,4.25
2023-01-29T19:14:41.963Z,4.90
2023-01-29T19:19:43.504Z,5.50
2023-01-29T19:24:45.771Z,4.88
2023-01-29T19:29:47.265Z,5.82
2023-01-29T19:34:48.730Z,5.18
2023-01-29T19:39:50.232Z,3.90
2023-01-29T19:44:53.301Z,4.38
2023-01-29T19:49:54.778Z,5.10
2023-01-29T19:54:56.244Z,5.45
2023-01-29T19:59:58.181Z,5.38
2023-01-29T20:05:01.171Z,5.75
2023-01-29T20:10:02.699Z,5.88
2023-01-29T20:15:05.387Z,6.38
2023-01-29T20:20:07.164Z,5.85
2023-01-29T20:25:09.023Z,6.88
2023-01-29T20:30:11.050Z,9.38
2023-01-29T20:35:12.514Z,6.45
2023-01-29T20:40:15.418Z,8.15
2023-01-29T20:45:17.063Z,7.18
2023-01-29T20:50:19.867Z,7.07
2023-01-29T20:55:21.409Z,6.50
2023-01-29T21:00:23.058Z,6.50
2023-01-29T21:05:24.620Z,6.70
2023-01-29T21:10:26.095Z,6.90
2023-01-29T21:15:27.558Z,6.35
2023-01-29T21:20:29.032Z,8.88
2023-01-29T21:25:30.546Z,7.20
2023-01-29T21:30:32.210Z,7.22
2023-01-29T21:35:33.862Z,6.40
2023-01-29T21:40:35.324Z,6.57
2023-01-29T21:45:37.329Z,6.35
2023-01-29T21:50:38.804Z,6.60
2023-01-29T21:55:40.273Z,6.18
2023-01-29T22:00:41.740Z,7.07
2023-01-29T22:05:43.203Z,8.45
2023-01-29T22:10:44.674Z,9.20
2023-01-29T22:15:46.342Z,6.20
2023-01-29T22:20:52.999Z,5.88
2023-01-29T22:25:54.722Z,6.38
2023-01-29T22:31:01.407Z,6.90
2023-01-29T22:36:02.923Z,8.07
2023-01-29T22:41:05.404Z,6.70
2023-01-29T22:46:10.502Z,7.72
2023-01-29T22:51:12.915Z,5.78
2023-01-29T22:56:14.494Z,5.95
2023-01-29T23:01:21.260Z,5.65
2023-01-29T23:06:22.824Z,7.68
2023-01-29T23:11:24.326Z,5.97
2023-01-29T23:16:27.992Z,5.95
2023-01-29T23:21:29.598Z,6.07
2023-01-29T23:26:49.399Z,5.72
2023-01-29T23:31:50.902Z,5.93
2023-01-29T23:36:52.380Z,6.45
2023-01-29T23:41:53.848Z,5.93
2023-01-29T23:46:55.391Z,7.15
2023-01-29T23:51:56.897Z,7.72
2023-01-29T23:56:58.369Z,6.50
